Time;durP1;ratioP1;P1;durP2;ratioP2;P2;SDS_P1;SDS_P2;PMS_P1;PMS_P2;Temp;Humidity;BMP_temperature;BMP_pressure;BME280_temperature;BME280_humidity;BME280_pressure;Samples;Min_cycle;Max_cycle;Signal;HPM_P1;HPM_P2
2022/12/17 13:06:50;;;;;;;77.13;34.50;;;-3275.70;91.60;;;;;;5019032;28;20419;-41
2022/12/17 13:09:20;;;;;;;69.57;32.28;;;-3275.70;91.50;;;;;;5026511;28;20060;-43
2022/12/17 13:12:08;;;;;;;78.25;35.50;;;-3275.70;91.50;;;;;;5030226;28;20079;-40
2022/12/17 13:15:05;;;;;;;76.72;31.02;;;-3275.80;91.50;;;;;;5021838;28;20022;-44
2022/12/17 13:17:59;;;;;;;78.03;31.83;;;-3275.70;91.30;;;;;;5041456;28;20135;-44
2022/12/17 13:20:32;;;;;;;76.93;34.22;;;-3275.60;91.30;;;;;;5039400;28;20537;-43
2022/12/17 13:23:25;;;;;;;77.93;32.05;;;-3275.60;91.30;;;;;;5025874;28;20121;-43
2022/12/17 13:26:12;;;;;;;81.95;35.10;;;-3275.60;91.30;;;;;;5022826;28;20053;-42
2022/12/17 13:28:42;;;;;;;80.60;33.63;;;-3275.50;91.20;;;;;;5024917;28;20029;-43
2022/12/17 13:31:50;;;;;;;80.60;33.00;;;-3275.40;91.40;;;;;;5025898;28;20026;-43
2022/12/17 13:34:49;;;;;;;84.05;33.20;;;-3275.50;91.60;;;;;;5021971;28;20498;-41
2022/12/17 13:37:21;;;;;;;80.35;33.40;;;-3275.50;91.60;;;;;;5021596;28;20471;-44
2022/12/17 13:40:38;;;;;;;75.13;34.80;;;-3275.40;91.60;;;;;;5019468;28;20375;-40
2022/12/17 13:43:18;;;;;;;81.70;30.95;;;-3275.40;91.70;;;;;;5024875;28;20517;-46
2022/12/17 13:45:47;;;;;;;91.88;34.55;;;-3275.40;91.70;;;;;;5032003;28;20026;-45
2022/12/17 13:48:26;;;;;;;81.38;34.50;;;-3275.30;91.60;;;;;;5032903;28;20017;-41
2022/12/17 13:51:18;;;;;;;79.70;33.93;;;-3275.30;91.70;;;;;;5030259;28;20079;-43
2022/12/17 13:53:56;;;;;;;94.63;39.13;;;-3275.30;91.80;;;;;;5020310;28;20041;-41
2022/12/17 13:56:35;;;;;;;81.17;37.33;;;-3275.40;91.70;;;;;;5013288;28;20041;-41
2022/12/17 13:59:04;;;;;;;88.40;35.13;;;-3275.40;91.70;;;;;;5011263;28;20030;-42
2022/12/17 14:01:30;;;;;;;93.93;36.97;;;-3275.40;91.80;;;;;;5024379;28;20609;-40
2022/12/17 14:04:01;;;;;;;89.93;37.13;;;-3275.50;91.80;;;;;;5030817;28;20041;-46
2022/12/17 14:06:32;;;;;;;89.47;36.53;;;-3275.50;91.70;;;;;;5032612;28;20037;-40
2022/12/17 14:09:02;;;;;;;86.78;36.17;;;-3275.50;91.70;;;;;;5031174;28;20087;-40
2022/12/17 14:14:38;;;;;;;84.72;33.58;;;-3275.40;91.70;;;;;;5044071;28;20056;-43
2022/12/17 14:17:05;;;;;;;83.13;33.65;;;-3275.40;91.70;;;;;;5032316;28;20025;-45
2022/12/17 14:19:36;;;;;;;88.70;35.00;;;-3275.40;91.60;;;;;;5031472;28;20565;-43
2022/12/17 14:22:14;;;;;;;79.82;33.45;;;-3275.30;91.40;;;;;;5031411;28;20048;-41
2022/12/17 14:24:40;;;;;;;86.20;33.60;;;-3275.30;91.50;;;;;;5031449;28;20033;-44
2022/12/17 14:27:23;;;;;;;76.63;32.38;;;-3275.30;91.70;;;;;;5032217;28;20454;-41
2022/12/17 14:29:55;;;;;;;97.07;36.45;;;-3275.30;91.80;;;;;;5034243;28;20040;-43
2022/12/17 14:32:35;;;;;;;109.75;40.50;;;-3275.30;91.90;;;;;;5051887;28;20025;-40
2022/12/17 14:35:02;;;;;;;94.00;37.42;;;-3275.20;91.80;;;;;;5029702;28;20075;-43
2022/12/17 14:37:32;;;;;;;102.55;37.47;;;-3275.30;92.00;;;;;;5015496;28;20037;-43
2022/12/17 14:40:05;;;;;;;83.03;36.60;;;-3275.30;92.00;;;;;;5007290;28;20087;-41
2022/12/17 14:42:35;;;;;;;102.65;36.38;;;-3275.30;92.00;;;;;;5029093;28;20087;-40
2022/12/17 14:45:22;;;;;;;90.63;34.35;;;-3275.20;92.00;;;;;;5020203;28;20033;-42
2022/12/17 14:48:00;;;;;;;97.25;38.42;;;-3275.20;92.00;;;;;;5021526;28;20028;-43
2022/12/17 14:50:53;;;;;;;95.75;38.30;;;-3275.20;92.10;;;;;;5015424;28;20083;-43
2022/12/17 14:53:26;;;;;;;94.57;36.80;;;-3275.20;92.10;;;;;;5021130;28;20535;-44
2022/12/17 14:55:56;;;;;;;102.25;40.78;;;-3275.20;92.10;;;;;;5016775;28;20064;-43
2022/12/17 14:58:25;;;;;;;102.25;35.65;;;-3275.20;92.10;;;;;;5023233;28;20037;-44
2022/12/17 15:01:12;;;;;;;91.05;34.92;;;-3275.20;92.10;;;;;;5020611;28;20056;-42
2022/12/17 15:03:45;;;;;;;103.20;38.47;;;-3275.30;92.20;;;;;;5022380;28;20100;-42
2022/12/17 15:06:17;;;;;;;90.35;40.65;;;-3275.30;92.20;;;;;;5015225;28;20025;-45
2022/12/17 15:08:51;;;;;;;92.20;36.72;;;-3275.30;92.10;;;;;;5013251;28;20049;-42
2022/12/17 15:11:20;;;;;;;90.85;36.75;;;-3275.20;92.00;;;;;;5032255;28;20026;-44
2022/12/17 15:13:49;;;;;;;85.82;34.42;;;-3275.20;92.00;;;;;;5025634;28;20569;-44
2022/12/17 15:16:16;;;;;;;96.38;38.30;;;-3275.20;92.10;;;;;;5022844;28;20046;-45
2022/12/17 15:18:43;;;;;;;115.53;37.88;;;-3275.20;92.00;;;;;;5023181;28;20029;-42
2022/12/17 15:21:11;;;;;;;97.97;37.17;;;-3275.10;92.00;;;;;;5025996;28;20059;-42
2022/12/17 15:23:43;;;;;;;108.57;39.58;;;-3275.10;92.10;;;;;;5029556;28;20403;-47
2022/12/17 15:26:14;;;;;;;119.63;39.83;;;-3275.10;92.20;;;;;;5025103;28;20057;-44
2022/12/17 15:28:42;;;;;;;114.80;40.75;;;-3275.10;92.20;;;;;;5039771;28;20049;-40
2022/12/17 15:31:13;;;;;;;107.43;39.05;;;-3275.10;92.20;;;;;;5028843;28;20017;-46
2022/12/17 15:33:40;;;;;;;110.72;40.90;;;-3275.10;92.30;;;;;;5018583;28;20087;-41
2022/12/17 15:36:08;;;;;;;102.60;38.85;;;-3275.10;92.30;;;;;;5020470;28;20022;-42
2022/12/17 15:38:34;;;;;;;113.75;42.00;;;-3275.00;92.30;;;;;;5024328;28;20092;-43
2022/12/17 15:43:09;;;;;;;103.93;40.03;;;-3275.00;92.40;;;;;;5026316;28;20036;-42
2022/12/17 15:43:49;;;;;;;139.88;47.00;;;-3275.00;92.30;;;;;;5026626;28;20462;-45
2022/12/17 15:46:15;;;;;;;104.32;41.83;;;-3275.00;92.40;;;;;;5026945;28;20056;-40
2022/12/17 15:48:43;;;;;;;120.03;43.58;;;-3274.90;92.40;;;;;;5027910;28;20029;-47
2022/12/17 15:51:12;;;;;;;113.05;40.88;;;-3275.00;92.60;;;;;;5023428;28;20062;-40
2022/12/17 15:53:39;;;;;;;102.22;38.33;;;-3274.90;92.60;;;;;;5025658;28;20017;-42
2022/12/17 15:56:06;;;;;;;124.30;43.45;;;-3275.00;92.70;;;;;;5025425;28;20046;-41
2022/12/17 15:58:32;;;;;;;117.93;46.83;;;-3274.90;92.70;;;;;;5026000;28;20026;-42
2022/12/17 16:01:02;;;;;;;117.22;42.67;;;-3274.90;92.60;;;;;;5023692;28;20386;-42
2022/12/17 16:03:29;;;;;;;108.82;42.55;;;-3274.80;92.70;;;;;;5030267;28;20116;-42
2022/12/17 16:05:59;;;;;;;115.88;41.65;;;-3274.90;92.70;;;;;;5027325;28;20042;-42
2022/12/17 16:08:26;;;;;;;104.70;37.75;;;-3274.90;92.80;;;;;;5031725;28;20083;-41
2022/12/17 16:10:55;;;;;;;111.25;42.60;;;-3274.90;92.70;;;;;;5030176;28;20025;-40
2022/12/17 16:13:28;;;;;;;;;;;-3274.90;92.80;;;;;;5030496;28;20038;-45
2022/12/17 16:15:59;;;;;;;116.35;37.05;;;-3274.90;92.80;;;;;;5026729;28;20219;-45
2022/12/17 16:18:26;;;;;;;134.65;46.20;;;-3274.90;92.80;;;;;;5029361;28;20029;-45
2022/12/17 16:20:53;;;;;;;130.10;44.28;;;-3275.00;92.80;;;;;;5026459;28;20095;-43
2022/12/17 16:23:20;;;;;;;130.65;41.95;;;-3275.00;92.80;;;;;;5029402;28;20029;-42
2022/12/17 16:25:58;;;;;;;113.05;41.05;;;-3275.00;92.70;;;;;;5030952;28;20424;-46
2022/12/17 16:28:25;;;;;;;102.32;41.67;;;-3275.00;92.80;;;;;;5023066;28;20093;-41
2022/12/17 16:31:02;;;;;;;112.63;41.22;;;-3275.00;92.80;;;;;;5027999;28;20030;-42
2022/12/17 16:33:36;;;;;;;107.20;38.25;;;-3275.00;92.70;;;;;;5030515;28;20025;-42
2022/12/17 16:36:04;;;;;;;117.32;40.22;;;-3274.90;92.50;;;;;;5031341;28;20041;-40
2022/12/17 16:38:31;;;;;;;107.05;37.65;;;-3274.90;92.60;;;;;;5029575;28;20060;-43
2022/12/17 16:41:01;;;;;;;118.10;42.85;;;-3274.80;92.70;;;;;;5031386;28;20080;-40
2022/12/17 16:43:32;;;;;;;121.28;40.00;;;-3274.90;92.70;;;;;;5030719;28;20470;-44
2022/12/17 16:46:03;;;;;;;105.97;39.47;;;-3274.90;92.80;;;;;;5029935;28;20960;-40
2022/12/17 16:48:36;;;;;;;119.13;43.90;;;-3275.00;92.80;;;;;;5028618;28;20075;-42
2022/12/17 16:51:15;;;;;;;107.53;38.85;;;-3274.90;92.60;;;;;;5030394;28;20021;-43
2022/12/17 16:53:42;;;;;;;104.25;38.28;;;-3274.90;92.70;;;;;;5028061;28;20569;-40
2022/12/17 16:56:13;;;;;;;103.43;37.78;;;-3274.90;92.60;;;;;;5023784;28;20124;-45
2022/12/17 16:58:40;;;;;;;108.05;41.25;;;-3274.80;92.50;;;;;;5026600;28;20021;-43
2022/12/17 17:01:07;;;;;;;105.60;36.08;;;-3274.80;92.60;;;;;;5030161;28;20343;-43
2022/12/17 17:03:37;;;;;;;102.80;39.60;;;-3274.80;92.60;;;;;;5032253;28;20112;-40
2022/12/17 17:06:03;;;;;;;120.25;41.17;;;-3274.80;92.70;;;;;;5028704;28;20407;-41
2022/12/17 17:08:32;;;;;;;102.38;37.63;;;-3274.80;92.70;;;;;;5021361;28;20044;-41
2022/12/17 17:11:11;;;;;;;106.82;41.97;;;-3274.80;92.50;;;;;;5022790;28;20497;-44
2022/12/17 17:13:39;;;;;;;108.60;38.17;;;-3274.80;92.60;;;;;;5029525;28;20104;-43
2022/12/17 17:16:08;;;;;;;99.32;38.42;;;-3274.80;92.50;;;;;;5022740;28;20025;-40
2022/12/17 17:18:35;;;;;;;112.00;39.30;;;-3274.80;92.50;;;;;;5023970;28;20025;-39
2022/12/17 17:21:18;;;;;;;108.60;39.08;;;-3274.80;92.50;;;;;;5019551;28;20120;-45
2022/12/17 17:23:52;;;;;;;103.75;39.22;;;-3274.90;92.60;;;;;;5024872;28;20243;-40
2022/12/17 17:26:20;;;;;;;102.70;36.80;;;-3274.80;92.40;;;;;;5027965;28;20044;-40
2022/12/17 17:28:47;;;;;;;93.88;38.05;;;-3274.80;92.40;;;;;;5027817;28;20096;-40
2022/12/17 17:31:17;;;;;;;125.15;39.97;;;-3274.80;92.40;;;;;;5018302;28;20018;-40
2022/12/17 17:33:49;;;;;;;99.32;37.30;;;-3274.80;92.40;;;;;;5028194;28;20068;-40
2022/12/17 17:36:27;;;;;;;106.78;38.78;;;-3274.80;92.40;;;;;;5028099;28;20365;-40
2022/12/17 17:38:56;;;;;;;96.32;34.67;;;-3274.70;92.20;;;;;;5020929;28;20083;-42
2022/12/17 17:41:25;;;;;;;96.78;36.10;;;-3274.80;92.50;;;;;;5028333;28;20103;-42
2022/12/17 17:44:01;;;;;;;99.65;38.15;;;-3274.80;92.50;;;;;;5026147;28;20497;-40
2022/12/17 17:46:31;;;;;;;100.75;39.75;;;-3274.70;92.40;;;;;;5030129;28;20524;-41
2022/12/17 17:49:00;;;;;;;100.68;36.65;;;-3274.70;92.50;;;;;;5025547;28;20101;-43
2022/12/17 17:51:32;;;;;;;102.20;37.22;;;-3274.80;92.60;;;;;;5018841;28;20029;-40
2022/12/17 17:54:00;;;;;;;96.30;36.95;;;-3274.80;92.30;;;;;;5024296;28;20029;-41
2022/12/17 17:56:33;;;;;;;88.60;33.60;;;-3274.80;92.50;;;;;;5028931;28;20043;-40
2022/12/17 17:59:02;;;;;;;86.20;34.80;;;-3274.70;92.20;;;;;;5027105;28;20540;-42
2022/12/17 18:01:32;;;;;;;95.30;39.25;;;-3274.80;92.40;;;;;;5022144;28;20153;-41
2022/12/17 18:04:00;;;;;;;;;;;-3274.80;92.40;;;;;;5019087;28;20164;-42
2022/12/17 18:06:29;;;;;;;82.93;36.97;;;-3274.80;92.40;;;;;;5029132;28;19921;-40
2022/12/17 18:08:57;;;;;;;69.50;30.70;;;-3274.70;92.10;;;;;;5024714;28;20130;-40
2022/12/17 18:11:27;;;;;;;80.50;32.28;;;-3274.60;92.10;;;;;;5026904;28;20029;-39
2022/12/17 18:13:58;;;;;;;82.15;31.90;;;-3274.60;92.00;;;;;;5022913;28;20029;-43
2022/12/17 18:16:46;;;;;;;81.25;34.53;;;-3274.60;92.10;;;;;;5028201;28;20025;-42
2022/12/17 18:19:21;;;;;;;92.50;38.33;;;-3274.60;92.10;;;;;;5028280;28;20144;-43
2022/12/17 18:21:48;;;;;;;96.10;33.60;;;-3274.60;92.10;;;;;;5027758;28;20022;-41
2022/12/17 18:24:22;;;;;;;82.32;32.17;;;-3274.50;92.10;;;;;;5027937;28;20521;-40
2022/12/17 18:26:50;;;;;;;85.28;35.80;;;-3274.60;92.30;;;;;;5025920;28;20029;-45
2022/12/17 18:29:35;;;;;;;91.60;33.07;;;-3274.60;92.20;;;;;;5025707;28;20461;-40
2022/12/17 18:32:02;;;;;;;81.88;33.42;;;-3274.60;92.20;;;;;;5017970;28;20050;-41
2022/12/17 18:34:29;;;;;;;87.28;34.92;;;-3274.50;92.30;;;;;;5027881;28;20036;-42
2022/12/17 18:36:58;;;;;;;87.25;35.80;;;-3274.50;92.10;;;;;;5024840;28;20091;-40
2022/12/17 18:39:25;;;;;;;93.72;36.30;;;-3274.50;92.10;;;;;;5017915;28;20034;-45
2022/12/17 18:44:39;;;;;;;78.50;33.60;;;-3274.40;92.30;;;;;;5023396;28;20080;-40
2022/12/17 18:47:07;;;;;;;100.78;43.38;;;-3274.50;92.40;;;;;;5026856;28;20041;-41
2022/12/17 18:49:38;;;;;;;96.65;40.40;;;-3274.50;92.40;;;;;;5019180;28;20030;-41
2022/12/17 18:52:05;;;;;;;88.72;36.92;;;-3274.50;92.40;;;;;;5014993;28;20105;-39
2022/12/17 18:54:34;;;;;;;92.22;36.65;;;-3274.40;92.30;;;;;;5020495;28;20397;-40
2022/12/17 18:57:04;;;;;;;83.20;36.70;;;-3274.40;92.40;;;;;;5019166;28;20088;-40
2022/12/17 18:59:30;;;;;;;96.25;40.30;;;-3274.40;92.40;;;;;;5021872;28;20029;-40
2022/12/17 19:01:58;;;;;;;89.95;36.60;;;-3274.40;92.50;;;;;;5026598;28;20067;-42
2022/12/17 19:04:25;;;;;;;90.20;34.83;;;-3274.50;92.40;;;;;;5019290;28;20424;-43
2022/12/17 19:06:53;;;;;;;83.93;35.25;;;-3274.40;92.30;;;;;;5031340;28;20041;-41
2022/12/17 19:09:33;;;;;;;85.07;33.95;;;-3274.50;92.40;;;;;;5032769;28;20022;-40
2022/12/17 19:12:00;;;;;;;76.63;33.58;;;-3274.30;92.10;;;;;;5014534;28;20018;-42
2022/12/17 19:14:28;;;;;;;81.25;37.40;;;-3274.40;92.50;;;;;;5023691;28;20122;-43
2022/12/17 19:16:57;;;;;;;74.38;32.75;;;-3274.30;92.40;;;;;;5023997;28;20034;-44
2022/12/17 19:19:24;;;;;;;;;;;-3274.30;92.30;;;;;;5039316;28;20033;-42
2022/12/17 19:21:58;;;;;;;80.63;33.08;;;-3274.20;92.20;;;;;;5020930;28;19952;-40
2022/12/17 19:24:26;;;;;;;79.13;33.67;;;-3274.20;92.40;;;;;;5016389;28;20506;-40
2022/12/17 19:26:53;;;;;;;82.95;31.92;;;-3274.30;92.50;;;;;;5028181;28;20042;-42
2022/12/17 19:29:23;;;;;;;90.05;34.15;;;-3274.30;92.30;;;;;;5028238;28;20053;-41
2022/12/17 19:31:49;;;;;;;84.85;34.53;;;-3274.20;92.40;;;;;;5030131;28;20021;-39
2022/12/17 19:34:17;;;;;;;80.05;35.60;;;-3274.30;92.50;;;;;;5021672;28;20100;-41
2022/12/17 19:36:43;;;;;;;81.32;34.45;;;-3274.30;92.30;;;;;;5025828;28;20025;-40
2022/12/17 19:39:16;;;;;;;90.40;33.97;;;-3274.20;92.40;;;;;;5021570;28;20131;-40
2022/12/17 19:41:43;;;;;;;87.40;36.17;;;-3274.20;92.50;;;;;;5026970;28;20443;-39
2022/12/17 19:44:15;;;;;;;83.50;37.55;;;-3274.20;92.50;;;;;;5025175;28;20029;-40
2022/12/17 19:46:43;;;;;;;81.63;37.67;;;-3274.20;92.40;;;;;;5031296;28;20075;-42
2022/12/17 19:49:14;;;;;;;93.03;38.58;;;-3274.10;92.40;;;;;;5025316;28;20477;-40
2022/12/17 19:51:42;;;;;;;94.35;36.97;;;-3274.20;92.60;;;;;;5027812;28;20068;-40
2022/12/17 19:54:14;;;;;;;91.60;35.65;;;-3274.20;92.60;;;;;;5031363;28;20032;-41
2022/12/17 19:56:41;;;;;;;94.43;36.22;;;-3274.30;92.60;;;;;;5029804;28;20397;-40
2022/12/17 19:59:09;;;;;;;94.15;37.85;;;-3274.30;92.80;;;;;;5018879;28;20037;-40
2022/12/17 20:01:40;;;;;;;81.65;37.72;;;-3274.30;92.70;;;;;;5029910;28;20125;-41
2022/12/17 20:04:11;;;;;;;97.55;37.60;;;-3274.30;92.70;;;;;;5028617;28;20073;-42
2022/12/17 20:06:37;;;;;;;90.10;37.97;;;-3274.30;92.70;;;;;;5030818;28;20405;-43
2022/12/17 20:09:05;;;;;;;86.07;36.97;;;-3274.20;92.50;;;;;;5031832;28;20030;-43
2022/12/17 20:11:33;;;;;;;79.95;38.05;;;-3274.20;92.60;;;;;;5024234;28;20474;-41
2022/12/17 20:14:07;;;;;;;93.68;37.45;;;-3274.20;92.70;;;;;;5015284;28;20080;-41
2022/12/17 20:16:38;;;;;;;85.65;35.78;;;-3274.20;92.70;;;;;;5021692;28;20158;-40
2022/12/17 20:19:10;;;;;;;86.18;37.78;;;-3274.20;92.60;;;;;;5022754;28;20048;-40
2022/12/17 20:21:41;;;;;;;91.25;38.05;;;-3274.10;92.60;;;;;;5030516;28;20477;-40
2022/12/17 20:24:09;;;;;;;91.43;38.10;;;-3274.20;92.70;;;;;;5024007;28;20128;-43
2022/12/17 20:26:37;;;;;;;88.00;39.80;;;-3274.10;92.60;;;;;;5021363;28;20455;-40
2022/12/17 20:29:05;;;;;;;87.28;35.97;;;-3274.20;92.80;;;;;;5025838;28;20325;-43
2022/12/17 20:31:32;;;;;;;82.45;37.88;;;-3274.30;92.70;;;;;;5024427;28;20033;-42
2022/12/17 20:34:05;;;;;;;102.03;41.80;;;-3274.30;92.70;;;;;;5022022;28;20021;-42
2022/12/17 20:36:30;;;;;;;93.32;40.58;;;-3274.30;92.70;;;;;;5025195;28;20037;-40
2022/12/17 20:38:58;;;;;;;93.53;38.42;;;-3274.30;92.70;;;;;;5025594;28;20483;-40
2022/12/17 20:41:28;;;;;;;90.90;37.22;;;-3274.40;92.60;;;;;;5022551;28;20130;-40
2022/12/17 20:43:55;;;;;;;87.05;36.83;;;-3274.40;92.60;;;;;;5024616;28;20036;-42
2022/12/17 20:46:24;;;;;;;89.32;40.17;;;-3274.40;92.60;;;;;;5024174;28;20636;-42
2022/12/17 20:48:51;;;;;;;87.07;36.63;;;-3274.30;92.40;;;;;;5040118;28;20034;-42
2022/12/17 20:51:21;;;;;;;108.68;45.17;;;-3274.30;92.50;;;;;;5024017;28;20079;-41
2022/12/17 20:53:52;;;;;;;97.78;38.53;;;-3274.30;92.40;;;;;;5024870;28;20025;-44
2022/12/17 20:56:22;;;;;;;98.20;37.72;;;-3274.40;92.60;;;;;;5015202;28;20041;-41
2022/12/17 20:58:53;;;;;;;98.70;41.85;;;-3274.30;92.30;;;;;;5021848;28;20029;-42
2022/12/17 21:01:22;;;;;;;87.22;39.08;;;-3274.30;92.30;;;;;;5015833;28;20050;-42
2022/12/17 21:03:53;;;;;;;96.35;41.55;;;-3274.30;92.40;;;;;;5014762;28;20018;-42
2022/12/17 21:06:38;;;;;;;87.72;38.58;;;-3274.30;92.40;;;;;;5014393;28;20037;-39
2022/12/17 21:09:06;;;;;;;91.72;38.50;;;-3274.20;92.40;;;;;;5014223;28;20033;-43
2022/12/17 21:11:36;;;;;;;88.47;40.45;;;-3274.10;92.30;;;;;;5016323;28;20093;-40
2022/12/17 21:14:14;;;;;;;100.55;39.95;;;-3274.10;92.50;;;;;;5028064;28;20558;-45
2022/12/17 21:16:41;;;;;;;88.97;39.70;;;-3274.10;92.40;;;;;;5021337;28;20427;-41
2022/12/17 21:19:11;;;;;;;92.75;39.05;;;-3274.10;92.60;;;;;;5033937;28;20018;-40
2022/12/17 21:21:38;;;;;;;109.30;41.08;;;-3274.10;92.60;;;;;;5032160;28;20458;-40
2022/12/17 21:24:08;;;;;;;92.55;39.95;;;-3274.10;92.60;;;;;;5033449;28;20034;-41
2022/12/17 21:26:36;;;;;;;97.95;40.55;;;-3274.10;92.70;;;;;;5026871;28;20402;-44
2022/12/17 21:29:05;;;;;;;84.32;36.28;;;-3274.10;92.50;;;;;;5020220;28;20033;-40
2022/12/17 21:31:55;;;;;;;97.18;41.25;;;-3274.00;92.60;;;;;;5041187;28;20437;-40
2022/12/17 21:34:24;;;;;;;88.60;36.30;;;-3274.00;92.50;;;;;;5036073;28;20089;-41
2022/12/17 21:36:50;;;;;;;96.13;40.70;;;-3274.00;92.40;;;;;;5032073;28;20026;-43
2022/12/17 21:39:18;;;;;;;92.18;38.03;;;-3273.90;92.40;;;;;;5034014;28;20445;-42
2022/12/17 21:44:37;;;;;;;99.95;41.38;;;-3274.00;92.50;;;;;;5033759;28;20114;-40
2022/12/17 21:47:03;;;;;;;91.05;38.45;;;-3274.00;92.50;;;;;;5042778;28;20470;-43
2022/12/17 21:49:30;;;;;;;93.78;38.15;;;-3274.00;92.60;;;;;;5052303;28;20119;-40
2022/12/17 21:51:59;;;;;;;92.13;37.53;;;-3273.90;92.40;;;;;;5053156;28;20583;-43
2022/12/17 21:54:25;;;;;;;87.85;38.33;;;-3274.00;92.60;;;;;;5051634;28;20033;-41
2022/12/17 21:56:51;;;;;;;93.93;37.70;;;-3274.00;92.50;;;;;;5041947;28;20038;-40
2022/12/17 21:59:17;;;;;;;90.43;38.15;;;-3274.00;92.50;;;;;;5032936;28;20033;-40
2022/12/17 22:01:44;;;;;;;87.43;36.38;;;-3274.00;92.50;;;;;;5027811;28;20371;-40
2022/12/17 22:04:11;;;;;;;82.40;36.05;;;-3274.00;92.40;;;;;;5013179;28;20105;-40
2022/12/17 22:06:37;;;;;;;89.55;35.67;;;-3274.00;92.50;;;;;;5021224;28;20026;-40
2022/12/17 22:09:05;;;;;;;76.78;33.30;;;-3274.10;92.40;;;;;;5029147;28;20014;-44
2022/12/17 22:11:31;;;;;;;83.00;35.65;;;-3274.00;92.30;;;;;;5024218;28;20022;-40
2022/12/17 22:14:01;;;;;;;86.45;36.80;;;-3274.00;92.30;;;;;;5028441;28;20024;-40
2022/12/17 22:16:28;;;;;;;89.82;36.47;;;-3274.00;92.30;;;;;;5013381;28;20107;-41
2022/12/17 22:18:53;;;;;;;85.75;37.40;;;-3274.00;92.30;;;;;;5012837;28;20475;-41
2022/12/17 22:21:20;;;;;;;83.15;34.47;;;-3274.00;92.30;;;;;;5038218;28;20056;-40
2022/12/17 22:23:47;;;;;;;87.07;37.95;;;-3274.00;92.20;;;;;;5050137;28;20029;-40
2022/12/17 22:26:15;;;;;;;76.18;34.95;;;-3273.90;92.10;;;;;;5032413;28;20021;-44
2022/12/17 22:28:48;;;;;;;75.25;34.67;;;-3273.90;92.20;;;;;;5035248;28;20339;-45
2022/12/17 22:34:07;;;;;;;76.28;33.15;;;-3273.90;92.10;;;;;;5033078;28;20028;-45
2022/12/17 22:36:33;;;;;;;77.45;33.50;;;-3273.80;92.10;;;;;;5014006;28;20065;-42
2022/12/17 22:39:04;;;;;;;91.35;39.47;;;-3273.80;92.10;;;;;;5032004;28;20037;-41
2022/12/17 22:44:16;;;;;;;70.93;32.80;;;-3273.80;92.00;;;;;;5031749;28;20060;-43
2022/12/17 22:46:42;;;;;;;77.50;33.83;;;-3273.70;92.00;;;;;;5032528;28;20112;-40
2022/12/17 22:49:10;;;;;;;88.13;35.95;;;-3273.70;92.10;;;;;;5032414;28;20032;-43
2022/12/17 22:51:38;;;;;;;83.32;34.85;;;-3273.70;92.10;;;;;;5032613;28;20429;-40
2022/12/17 22:54:08;;;;;;;81.85;35.38;;;-3273.70;92.30;;;;;;5032064;28;20022;-43
2022/12/17 22:56:37;;;;;;;86.35;36.85;;;-3273.70;92.20;;;;;;5031004;28;20371;-41
2022/12/17 22:59:03;;;;;;;85.63;34.63;;;-3273.80;92.10;;;;;;5030914;28;20029;-44
2022/12/17 23:01:33;;;;;;;90.95;37.80;;;-3273.70;92.20;;;;;;5022908;28;20456;-43
2022/12/17 23:04:01;;;;;;;82.28;34.75;;;-3273.80;92.20;;;;;;5022182;28;20037;-42
2022/12/17 23:06:31;;;;;;;88.32;36.47;;;-3273.80;92.10;;;;;;5031731;28;20033;-42
2022/12/17 23:08:58;;;;;;;84.78;34.85;;;-3273.80;92.20;;;;;;5032302;28;20025;-40
2022/12/17 23:11:27;;;;;;;83.72;36.17;;;-3273.70;92.00;;;;;;5030630;28;20031;-40
2022/12/17 23:13:54;;;;;;;81.22;35.30;;;-3273.70;92.00;;;;;;5018245;28;20053;-41
2022/12/17 23:16:23;;;;;;;81.43;36.08;;;-3273.70;92.10;;;;;;5013217;28;20042;-42
2022/12/17 23:18:50;;;;;;;82.65;39.65;;;-3273.70;92.10;;;;;;5041921;28;20163;-42
2022/12/17 23:21:21;;;;;;;82.88;36.20;;;-3273.70;92.10;;;;;;5051742;28;20044;-42
2022/12/17 23:23:48;;;;;;;83.95;38.83;;;-3273.70;92.20;;;;;;5052118;28;20031;-41
2022/12/17 23:26:23;;;;;;;86.63;35.00;;;-3273.80;92.10;;;;;;5035146;28;20451;-41
2022/12/17 23:28:58;;;;;;;80.22;34.50;;;-3273.70;92.00;;;;;;5027151;28;20029;-44
2022/12/17 23:31:31;;;;;;;80.35;32.50;;;-3273.70;92.00;;;;;;5012447;28;20459;-41
2022/12/17 23:33:59;;;;;;;88.00;36.45;;;-3273.70;91.90;;;;;;5038516;28;20021;-44
2022/12/17 23:36:28;;;;;;;88.00;38.05;;;-3273.70;91.90;;;;;;5050762;28;20378;-43
2022/12/17 23:38:55;;;;;;;;;;;-3273.60;91.80;;;;;;5051464;28;20037;-44
2022/12/17 23:41:25;;;;;;;79.95;32.83;;;-3273.60;91.80;;;;;;5051964;28;19908;-40
2022/12/17 23:43:53;;;;;;;86.18;34.80;;;-3273.70;92.00;;;;;;5036622;28;20033;-40
2022/12/17 23:46:25;;;;;;;98.07;40.58;;;-3273.70;92.10;;;;;;5055511;28;20039;-43
2022/12/17 23:48:53;;;;;;;90.18;38.75;;;-3273.70;92.00;;;;;;5055467;28;20021;-41
2022/12/17 23:51:20;;;;;;;88.40;37.20;;;-3273.70;91.90;;;;;;5045336;28;20021;-42
2022/12/17 23:53:48;;;;;;;83.07;33.20;;;-3273.70;91.80;;;;;;5055182;28;20472;-40
2022/12/17 23:56:27;;;;;;;85.15;38.28;;;-3273.70;91.90;;;;;;5053795;28;20037;-40
2022/12/17 23:58:59;;;;;;;88.85;34.25;;;-3273.70;91.80;;;;;;5015886;28;20036;-41
